createdAt,value
2022-11-24T00:01:22.983Z,131.00
2022-11-24T00:03:59.058Z,139.63
2022-11-24T00:06:27.014Z,137.37
2022-11-24T00:08:55.227Z,117.73
2022-11-24T00:11:27.291Z,126.57
2022-11-24T00:13:55.209Z,135.57
2022-11-24T00:16:31.308Z,118.50
2022-11-24T00:19:00.216Z,118.53
2022-11-24T00:21:28.810Z,115.93
2022-11-24T00:23:56.591Z,120.23
2022-11-24T00:26:30.604Z,119.00
2022-11-24T00:29:03.531Z,115.97
2022-11-24T00:31:40.493Z,127.63
2022-11-24T00:34:14.016Z,117.63
2022-11-24T00:36:42.187Z,130.87
2022-11-24T00:39:13.676Z,116.67
2022-11-24T00:41:41.567Z,124.23
2022-11-24T00:44:09.118Z,129.67
2022-11-24T00:46:36.187Z,119.50
2022-11-24T00:49:03.649Z,142.03
2022-11-24T00:51:30.981Z,130.93
2022-11-24T00:53:59.612Z,126.83
2022-11-24T00:56:28.267Z,137.43
2022-11-24T00:58:55.606Z,126.20
2022-11-24T01:01:26.300Z,123.77
2022-11-24T01:03:54.594Z,116.73
2022-11-24T01:06:26.670Z,115.53
2022-11-24T01:08:54.683Z,127.20
2022-11-24T01:11:27.262Z,120.47
2022-11-24T01:13:57.728Z,109.37
2022-11-24T01:16:32.163Z,105.73
2022-11-24T01:18:59.174Z,118.53
2022-11-24T01:21:26.095Z,119.10
2022-11-24T01:23:53.207Z,129.93
2022-11-24T01:26:22.166Z,115.13
2022-11-24T01:28:57.054Z,118.53
2022-11-24T01:31:25.548Z,105.53
2022-11-24T01:33:53.268Z,109.03
2022-11-24T01:36:20.782Z,111.53
2022-11-24T01:38:47.917Z,120.67
2022-11-24T01:41:24.536Z,116.20
2022-11-24T01:43:53.558Z,101.07
2022-11-24T01:46:41.924Z,115.83
2022-11-24T01:49:08.689Z,104.67
2022-11-24T01:51:41.714Z,97.00
2022-11-24T01:54:19.043Z,101.33
2022-11-24T01:56:49.670Z,95.80
2022-11-24T01:59:19.515Z,91.63
2022-11-24T02:01:48.715Z,106.27
2022-11-24T02:04:20.344Z,101.67
2022-11-24T02:06:48.317Z,102.03
2022-11-24T02:09:24.299Z,108.83
2022-11-24T02:11:52.069Z,104.43
2022-11-24T02:14:19.676Z,101.93
2022-11-24T02:16:50.909Z,118.77
2022-11-24T02:19:40.912Z,93.00
2022-11-24T02:22:41.833Z,97.13
2022-11-24T02:25:27.905Z,97.93
2022-11-24T02:27:56.948Z,109.93
2022-11-24T02:30:24.029Z,98.93
2022-11-24T02:32:52.512Z,107.73
2022-11-24T02:35:19.592Z,99.07
2022-11-24T02:37:46.451Z,103.10
2022-11-24T02:40:16.823Z,108.97
2022-11-24T02:42:46.011Z,96.00
2022-11-24T02:45:16.651Z,105.10
2022-11-24T02:47:43.886Z,99.20
2022-11-24T02:50:10.760Z,88.20
2022-11-24T02:52:37.626Z,96.03
2022-11-24T02:55:05.466Z,106.77
2022-11-24T02:57:32.592Z,98.87
2022-11-24T02:59:59.647Z,133.70
2022-11-24T03:02:26.602Z,102.60
2022-11-24T03:04:53.532Z,111.60
2022-11-24T03:07:20.522Z,97.83
2022-11-24T03:09:47.424Z,91.30
2022-11-24T03:12:14.390Z,99.87
2022-11-24T03:14:41.294Z,100.10
2022-11-24T03:17:08.188Z,91.37
2022-11-24T03:19:35.090Z,93.67
2022-11-24T03:22:02.015Z,89.03
2022-11-24T03:24:28.908Z,86.10
2022-11-24T03:26:55.854Z,80.50
2022-11-24T03:29:23.230Z,78.50
2022-11-24T03:31:50.120Z,82.00
2022-11-24T03:34:17.010Z,68.03
2022-11-24T03:36:43.884Z,66.47
2022-11-24T03:39:10.770Z,71.20
2022-11-24T03:41:37.636Z,77.57
2022-11-24T03:44:04.797Z,65.23
2022-11-24T03:46:31.737Z,79.30
2022-11-24T03:48:58.646Z,80.60
2022-11-24T03:51:25.530Z,81.53
2022-11-24T03:53:52.412Z,80.30
2022-11-24T03:56:19.303Z,81.03
2022-11-24T03:58:46.336Z,82.17
2022-11-24T04:01:13.245Z,81.70
2022-11-24T04:03:40.229Z,74.50
2022-11-24T04:06:07.145Z,75.70
2022-11-24T04:08:34.027Z,89.17
2022-11-24T04:11:00.995Z,68.43
2022-11-24T04:13:28.509Z,61.63
2022-11-24T04:15:55.465Z,66.70
2022-11-24T04:18:22.724Z,67.10
2022-11-24T04:20:51.261Z,61.50
2022-11-24T04:23:18.800Z,73.60
2022-11-24T04:25:45.692Z,68.47
2022-11-24T04:28:12.699Z,64.87
2022-11-24T04:30:44.523Z,71.50
2022-11-24T04:33:11.864Z,58.67
2022-11-24T04:35:38.737Z,59.37
2022-11-24T04:38:05.626Z,68.43
2022-11-24T04:40:32.526Z,68.10
2022-11-24T04:42:59.390Z,73.33
2022-11-24T04:45:26.288Z,65.27
2022-11-24T04:47:53.181Z,72.03
2022-11-24T04:50:20.770Z,67.40
2022-11-24T04:52:47.679Z,64.40
2022-11-24T04:55:14.560Z,60.80
2022-11-24T04:57:41.438Z,60.67
2022-11-24T05:00:10.453Z,64.10
2022-11-24T05:02:37.635Z,75.17
2022-11-24T05:05:06.583Z,73.43
2022-11-24T05:07:33.747Z,69.37
2022-11-24T05:10:19.034Z,79.10
2022-11-24T05:12:51.483Z,63.50
2022-11-24T05:15:18.453Z,59.30
2022-11-24T05:17:45.357Z,70.07
2022-11-24T05:20:12.257Z,60.27
2022-11-24T05:22:39.196Z,65.70
2022-11-24T05:25:06.464Z,62.10
2022-11-24T05:27:33.340Z,66.63
2022-11-24T05:30:00.210Z,76.10
2022-11-24T05:32:27.322Z,64.63
2022-11-24T05:34:54.637Z,73.00
2022-11-24T05:37:22.044Z,64.40
2022-11-24T05:39:48.927Z,71.60
2022-11-24T05:42:34.370Z,81.43
2022-11-24T05:45:01.250Z,69.07
2022-11-24T05:47:28.164Z,63.80
2022-11-24T05:49:55.067Z,69.60
2022-11-24T05:52:21.974Z,59.60
2022-11-24T05:54:49.134Z,61.00
2022-11-24T05:57:17.659Z,59.27
2022-11-24T05:59:44.779Z,83.20
2022-11-24T06:02:11.956Z,60.33
2022-11-24T06:04:39.642Z,71.87
2022-11-24T06:07:12.668Z,55.73
2022-11-24T06:09:41.172Z,65.97
2022-11-24T06:12:10.024Z,56.77
2022-11-24T06:14:37.195Z,57.80
2022-11-24T06:17:06.172Z,60.17
2022-11-24T06:19:33.052Z,61.50
2022-11-24T06:21:59.926Z,59.80
2022-11-24T06:24:26.899Z,64.03
2022-11-24T06:26:53.772Z,60.37
2022-11-24T06:29:20.650Z,63.00
2022-11-24T06:31:47.602Z,59.97
2022-11-24T06:34:14.542Z,62.73
2022-11-24T06:36:41.414Z,63.80
2022-11-24T06:39:08.325Z,54.83
2022-11-24T06:41:35.715Z,57.03
2022-11-24T06:44:04.535Z,62.03
2022-11-24T06:46:32.020Z,70.20
2022-11-24T06:48:59.880Z,58.90
2022-11-24T06:51:27.658Z,55.83
2022-11-24T06:53:54.935Z,63.20
2022-11-24T06:56:22.263Z,54.60
2022-11-24T06:58:51.958Z,55.60
2022-11-24T07:01:27.502Z,53.70
2022-11-24T07:03:55.719Z,61.13
2022-11-24T07:06:25.122Z,58.00
2022-11-24T07:08:52.746Z,60.07
2022-11-24T07:11:24.354Z,55.33
2022-11-24T07:13:56.470Z,58.80
2022-11-24T07:16:26.782Z,57.60
2022-11-24T07:18:54.835Z,65.27
2022-11-24T07:21:24.326Z,53.57
2022-11-24T07:23:54.170Z,56.00
2022-11-24T07:26:22.577Z,53.13
2022-11-24T07:28:50.041Z,55.37
2022-11-24T07:31:20.323Z,53.37
2022-11-24T07:33:51.947Z,54.63
2022-11-24T07:36:19.385Z,59.27
2022-11-24T07:38:46.984Z,53.57
2022-11-24T07:41:16.039Z,54.60
2022-11-24T07:43:42.963Z,67.17
2022-11-24T07:46:13.249Z,57.03
2022-11-24T07:48:40.592Z,68.67
2022-11-24T07:51:07.685Z,57.40
2022-11-24T07:53:35.270Z,60.63
2022-11-24T07:56:04.614Z,57.73
2022-11-24T07:58:34.310Z,56.23
2022-11-24T08:01:14.182Z,60.17
2022-11-24T08:03:42.535Z,57.37
2022-11-24T08:06:27.715Z,63.83
2022-11-24T08:08:56.876Z,60.00
2022-11-24T08:11:24.440Z,58.17
2022-11-24T08:13:51.681Z,56.10
2022-11-24T08:16:20.030Z,53.20
2022-11-24T08:18:55.361Z,47.70
2022-11-24T08:21:23.674Z,54.03
2022-11-24T08:23:57.330Z,53.53
2022-11-24T08:26:25.497Z,48.00
2022-11-24T08:28:58.439Z,52.80
2022-11-24T08:31:32.691Z,57.23
2022-11-24T08:34:00.614Z,48.23
2022-11-24T08:36:27.531Z,52.00
2022-11-24T08:38:56.449Z,47.20
2022-11-24T08:41:24.567Z,46.97
2022-11-24T08:43:51.502Z,51.60
2022-11-24T08:46:19.355Z,50.53
2022-11-24T08:48:51.468Z,55.43
2022-11-24T08:51:22.096Z,46.27
2022-11-24T08:53:48.991Z,47.03
2022-11-24T08:56:15.971Z,40.80
2022-11-24T08:58:42.972Z,45.40
2022-11-24T09:01:13.840Z,43.07
2022-11-24T09:03:46.557Z,44.47
2022-11-24T09:06:19.245Z,42.40
2022-11-24T09:08:46.265Z,43.60
2022-11-24T09:11:15.117Z,50.77
2022-11-24T09:13:42.644Z,42.10
2022-11-24T09:16:21.936Z,49.93
2022-11-24T09:18:56.846Z,44.10
2022-11-24T09:21:24.132Z,44.03
2022-11-24T09:23:53.423Z,47.83
2022-11-24T09:26:29.227Z,45.60
2022-11-24T09:28:57.995Z,42.87
2022-11-24T09:31:32.220Z,40.90
2022-11-24T09:33:59.526Z,37.20
2022-11-24T09:36:27.159Z,36.63
2022-11-24T09:38:54.253Z,41.63
2022-11-24T09:42:06.292Z,38.83
2022-11-24T09:45:57.057Z,40.27
2022-11-24T09:48:27.195Z,40.83
2022-11-24T09:50:54.178Z,45.30
2022-11-24T09:53:34.818Z,43.77
2022-11-24T09:56:22.874Z,47.90
2022-11-24T09:58:51.508Z,46.97
2022-11-24T10:01:22.770Z,48.73
2022-11-24T10:03:52.047Z,45.97
2022-11-24T10:06:27.679Z,48.30
2022-11-24T10:09:15.443Z,43.47
2022-11-24T10:12:15.626Z,49.60
2022-11-24T10:15:04.993Z,46.10
2022-11-24T10:17:58.250Z,42.27
2022-11-24T10:20:49.729Z,46.23
2022-11-24T10:23:45.652Z,51.13
2022-11-24T10:26:37.218Z,48.23
2022-11-24T10:29:33.235Z,51.27
2022-11-24T10:32:05.164Z,49.43
2022-11-24T10:34:37.640Z,49.30
2022-11-24T10:37:31.274Z,43.60
2022-11-24T10:40:33.467Z,43.23
2022-11-24T10:43:01.515Z,46.17
2022-11-24T10:45:29.645Z,46.53
2022-11-24T10:47:58.710Z,44.07
2022-11-24T10:50:33.114Z,42.43
2022-11-24T10:53:22.632Z,44.70
2022-11-24T10:55:58.092Z,44.27
2022-11-24T10:58:32.998Z,47.27
2022-11-24T11:01:13.159Z,61.43
2022-11-24T11:03:59.638Z,54.70
2022-11-24T11:06:32.182Z,47.53
2022-11-24T11:09:08.127Z,40.57
2022-11-24T11:11:36.967Z,41.00
2022-11-24T11:14:07.023Z,38.83
2022-11-24T11:16:43.679Z,42.30
2022-11-24T11:19:54.199Z,45.67
2022-11-24T11:22:30.403Z,42.30
2022-11-24T11:25:21.274Z,45.93
2022-11-24T11:27:48.981Z,40.37
2022-11-24T11:36:16.658Z,38.27
2022-11-24T11:38:45.397Z,39.00
2022-11-24T11:41:24.269Z,36.13
2022-11-24T11:44:05.060Z,38.57
2022-11-24T11:46:33.230Z,34.90
2022-11-24T11:49:00.574Z,36.17
2022-11-24T11:52:04.737Z,39.80
2022-11-24T11:54:59.655Z,43.67
2022-11-24T11:58:17.164Z,34.17
2022-11-24T12:01:00.988Z,41.17
2022-11-24T12:03:40.306Z,40.43
2022-11-24T12:06:42.046Z,37.10
2022-11-24T12:09:48.021Z,38.77
2022-11-24T12:13:07.611Z,36.10
2022-11-24T12:15:54.986Z,41.50
2022-11-24T12:19:14.015Z,37.60
2022-11-24T12:22:11.291Z,37.77
2022-11-24T12:25:15.045Z,42.20
2022-11-24T12:28:11.594Z,34.87
2022-11-24T12:31:06.417Z,36.57
2022-11-24T12:34:22.614Z,35.00
2022-11-24T12:37:26.595Z,40.87
2022-11-24T12:40:05.567Z,37.53
2022-11-24T12:42:51.355Z,39.17
2022-11-24T12:45:44.801Z,36.30
2022-11-24T12:48:34.632Z,44.87
2022-11-24T12:51:03.661Z,41.43
2022-11-24T12:53:37.321Z,37.93
2022-11-24T12:56:09.581Z,36.67
2022-11-24T12:59:09.722Z,37.10
2022-11-24T13:02:03.191Z,36.50
2022-11-24T13:04:38.642Z,41.90
2022-11-24T13:07:21.648Z,37.97
2022-11-24T13:10:53.648Z,39.73
2022-11-24T13:13:13.850Z,38.70
2022-11-24T13:16:07.054Z,39.80
2022-11-24T13:19:23.749Z,46.63
2022-11-24T13:22:09.616Z,36.97
2022-11-24T13:24:39.463Z,43.37
2022-11-24T13:27:15.871Z,42.23
2022-11-24T13:29:48.594Z,39.53
2022-11-24T13:32:15.353Z,49.87
2022-11-24T13:34:54.946Z,40.37
2022-11-24T13:37:35.490Z,40.73
2022-11-24T13:40:12.224Z,35.60
2022-11-24T13:42:57.784Z,41.50
2022-11-24T13:45:40.360Z,42.07
2022-11-24T13:48:19.939Z,41.70
2022-11-24T13:50:50.160Z,37.37
2022-11-24T13:53:47.259Z,41.13
2022-11-24T13:56:14.123Z,38.67
2022-11-24T13:58:47.817Z,41.93
2022-11-24T14:01:33.346Z,43.50
2022-11-24T14:04:29.820Z,39.43
2022-11-24T14:07:08.987Z,48.23
2022-11-24T14:09:46.964Z,45.80
2022-11-24T14:12:20.190Z,48.73
2022-11-24T14:14:52.494Z,40.60
2022-11-24T14:17:27.591Z,40.73
2022-11-24T14:19:57.142Z,45.17
2022-11-24T14:22:32.190Z,38.10
2022-11-24T14:25:01.143Z,44.83
2022-11-24T14:27:35.549Z,41.90
2022-11-24T14:30:13.326Z,41.87
2022-11-24T14:32:40.706Z,46.43
2022-11-24T14:35:32.040Z,45.80
2022-11-24T14:38:03.942Z,45.03
2022-11-24T14:40:41.804Z,47.53
2022-11-24T14:43:30.143Z,47.70
2022-11-24T14:46:10.423Z,46.43
2022-11-24T14:48:51.683Z,41.27
2022-11-24T14:51:24.375Z,47.53
2022-11-24T14:53:54.448Z,47.50
2022-11-24T14:56:34.795Z,43.90
2022-11-24T14:59:01.982Z,55.23
2022-11-24T15:01:29.293Z,46.97
2022-11-24T15:04:54.473Z,59.23
2022-11-24T15:07:18.858Z,50.43
2022-11-24T15:09:52.433Z,45.67
2022-11-24T15:12:34.797Z,48.23
2022-11-24T15:15:19.998Z,56.33
2022-11-24T15:17:56.348Z,55.03
2022-11-24T15:20:36.856Z,49.60
2022-11-24T15:23:21.924Z,50.87
2022-11-24T15:25:51.087Z,53.80
2022-11-24T15:28:18.071Z,48.03
2022-11-24T15:30:44.949Z,54.50
2022-11-24T15:33:19.649Z,61.40
2022-11-24T15:35:47.204Z,49.47
2022-11-24T15:38:14.937Z,52.90
2022-11-24T15:40:44.673Z,59.50
2022-11-24T15:43:34.077Z,68.53
2022-11-24T15:46:02.643Z,65.07
2022-11-24T15:48:30.227Z,66.87
2022-11-24T15:50:58.696Z,63.77
2022-11-24T15:53:34.141Z,63.40
2022-11-24T15:56:03.766Z,59.23
2022-11-24T15:58:30.656Z,57.83
2022-11-24T16:00:57.590Z,62.37
2022-11-24T16:03:46.180Z,67.43
2022-11-24T16:06:24.143Z,57.07
2022-11-24T16:08:53.130Z,64.50
2022-11-24T16:11:20.461Z,72.97
2022-11-24T16:13:52.552Z,61.30
2022-11-24T16:16:21.779Z,55.93
2022-11-24T16:18:48.795Z,72.20
2022-11-24T16:21:15.776Z,62.53
2022-11-24T16:23:42.783Z,60.17
2022-11-24T16:26:10.376Z,61.40
2022-11-24T16:28:37.306Z,62.33
2022-11-24T16:31:04.353Z,64.00
2022-11-24T16:33:31.737Z,61.63
2022-11-24T16:35:58.727Z,54.93
2022-11-24T16:38:25.618Z,69.13
2022-11-24T16:40:54.451Z,60.63
2022-11-24T16:43:21.435Z,54.10
2022-11-24T16:46:16.942Z,60.53
2022-11-24T16:48:46.432Z,67.33
2022-11-24T16:51:14.515Z,60.40
2022-11-24T16:53:41.963Z,61.10
2022-11-24T16:56:09.238Z,55.37
2022-11-24T16:58:40.840Z,58.53
2022-11-24T17:01:11.315Z,58.80
2022-11-24T17:03:38.996Z,69.03
2022-11-24T17:06:16.703Z,66.23
2022-11-24T17:08:46.094Z,61.37
2022-11-24T17:11:16.653Z,67.13
2022-11-24T17:13:44.355Z,59.40
2022-11-24T17:16:14.796Z,56.50
2022-11-24T17:18:42.494Z,68.73
2022-11-24T17:21:15.032Z,63.90
2022-11-24T17:23:42.267Z,68.00
2022-11-24T17:26:13.750Z,64.67
2022-11-24T17:28:41.645Z,56.10
2022-11-24T17:31:29.769Z,65.80
2022-11-24T17:33:58.964Z,62.67
2022-11-24T17:36:26.795Z,56.03
2022-11-24T17:38:53.849Z,54.77
2022-11-24T17:41:21.647Z,56.23
2022-11-24T17:43:53.611Z,65.20
2022-11-24T17:46:20.581Z,58.60
2022-11-24T17:48:47.793Z,55.67
2022-11-24T17:51:18.557Z,62.77
2022-11-24T17:53:47.683Z,56.77
2022-11-24T17:56:18.528Z,55.93
2022-11-24T17:58:45.422Z,69.37
2022-11-24T18:01:13.543Z,76.33
2022-11-24T18:03:40.879Z,61.40
2022-11-24T18:06:14.109Z,58.83
2022-11-24T18:08:44.967Z,54.27
2022-11-24T18:11:24.606Z,57.90
2022-11-24T18:13:59.907Z,58.07
2022-11-24T18:16:30.057Z,68.33
2022-11-24T18:19:14.898Z,66.93
2022-11-24T18:21:44.673Z,66.03
2022-11-24T18:24:12.947Z,57.93
2022-11-24T18:26:41.714Z,57.50
2022-11-24T18:29:10.036Z,68.03
2022-11-24T18:31:37.450Z,62.97
2022-11-24T18:34:05.791Z,103.30
2022-11-24T18:36:34.474Z,75.27
2022-11-24T18:39:03.278Z,61.07
2022-11-24T18:41:30.270Z,62.23
2022-11-24T18:43:57.195Z,67.80
2022-11-24T18:46:24.128Z,74.20
2022-11-24T18:48:53.087Z,69.27
2022-11-24T18:51:20.091Z,68.47
2022-11-24T18:53:51.648Z,61.93
2022-11-24T18:56:19.012Z,57.87
2022-11-24T18:58:46.513Z,63.17
2022-11-24T19:01:16.948Z,64.97
2022-11-24T19:03:49.113Z,59.20
2022-11-24T19:06:21.785Z,58.63
2022-11-24T19:08:51.805Z,63.20
2022-11-24T19:11:33.582Z,73.43
2022-11-24T19:14:04.788Z,64.70
2022-11-24T19:16:32.100Z,58.03
2022-11-24T19:19:00.119Z,54.27
2022-11-24T19:21:28.287Z,62.97
2022-11-24T19:23:58.507Z,49.90
2022-11-24T19:26:28.248Z,58.07
2022-11-24T19:28:55.257Z,47.03
2022-11-24T19:31:22.314Z,52.77
2022-11-24T19:33:49.212Z,52.73
2022-11-24T19:36:19.045Z,54.17
2022-11-24T19:38:54.359Z,59.57
2022-11-24T19:41:27.709Z,65.37
2022-11-24T19:43:55.035Z,58.80
2022-11-24T19:46:27.377Z,60.67
2022-11-24T19:48:56.939Z,60.50
2022-11-24T19:51:30.690Z,64.43
2022-11-24T19:53:58.265Z,55.47
2022-11-24T19:56:27.660Z,57.07
2022-11-24T19:58:55.657Z,59.10
2022-11-24T20:01:39.409Z,67.10
2022-11-24T20:04:14.936Z,63.20
2022-11-24T20:06:45.875Z,61.73
2022-11-24T20:09:16.856Z,52.87
2022-11-24T20:11:44.600Z,54.07
2022-11-24T20:14:14.191Z,50.90
2022-11-24T20:16:41.397Z,70.13
2022-11-24T20:19:12.620Z,54.17
2022-11-24T20:21:41.652Z,56.93
2022-11-24T20:24:13.365Z,62.73
2022-11-24T20:26:45.212Z,55.40
2022-11-24T20:29:13.671Z,55.27
2022-11-24T20:31:55.300Z,50.70
2022-11-24T20:34:23.619Z,52.83
2022-11-24T20:36:52.710Z,55.80
2022-11-24T20:39:26.484Z,51.80
2022-11-24T20:41:55.439Z,53.00
2022-11-24T20:44:24.908Z,61.27
2022-11-24T20:46:55.078Z,51.53
2022-11-24T20:49:23.134Z,52.00
2022-11-24T20:51:54.299Z,51.47
2022-11-24T20:54:21.984Z,53.47
2022-11-24T20:56:49.144Z,51.63
2022-11-24T20:59:24.282Z,55.17
2022-11-24T21:01:54.041Z,50.13
2022-11-24T21:04:26.579Z,49.40
2022-11-24T21:06:53.526Z,55.60
2022-11-24T21:09:20.883Z,51.10
2022-11-24T21:11:48.364Z,57.07
2022-11-24T21:14:15.414Z,57.77
2022-11-24T21:16:43.203Z,44.43
2022-11-24T21:19:15.077Z,46.97
2022-11-24T21:21:42.928Z,44.37
2022-11-24T21:24:18.531Z,57.70
2022-11-24T21:26:50.399Z,62.83
2022-11-24T21:29:19.166Z,50.63
2022-11-24T21:31:46.225Z,53.67
2022-11-24T21:34:16.579Z,55.20
2022-11-24T21:36:45.012Z,48.43
2022-11-24T21:39:14.677Z,52.53
2022-11-24T21:41:42.278Z,61.90
2022-11-24T21:44:11.301Z,51.27
2022-11-24T21:46:44.192Z,51.63
2022-11-24T21:49:14.891Z,57.03
2022-11-24T21:51:41.753Z,53.47
2022-11-24T21:54:08.905Z,55.13
2022-11-24T21:56:35.784Z,72.07
2022-11-24T21:59:02.656Z,56.80
2022-11-24T22:01:29.813Z,44.63
2022-11-24T22:03:56.881Z,55.10
2022-11-24T22:06:24.040Z,52.70
2022-11-24T22:08:50.971Z,51.77
2022-11-24T22:11:22.070Z,59.20
2022-11-24T22:13:49.742Z,54.50
2022-11-24T22:16:20.059Z,46.47
2022-11-24T22:18:47.363Z,55.23
2022-11-24T22:21:20.153Z,44.93
2022-11-24T22:23:52.535Z,44.43
2022-11-24T22:26:22.059Z,45.97
2022-11-24T22:28:49.014Z,45.50
2022-11-24T22:31:21.026Z,42.90
2022-11-24T22:33:48.966Z,44.00
2022-11-24T22:36:17.998Z,47.30
2022-11-24T22:38:44.887Z,46.43
2022-11-24T22:41:17.554Z,43.77
2022-11-24T22:43:45.792Z,45.03
2022-11-24T22:46:19.346Z,41.53
2022-11-24T22:48:48.369Z,48.80
2022-11-24T22:51:18.816Z,49.13
2022-11-24T22:53:53.697Z,41.47
2022-11-24T22:56:21.469Z,40.33
2022-11-24T22:58:49.073Z,44.07
2022-11-24T23:01:24.447Z,45.30
2022-11-24T23:03:54.359Z,42.20
2022-11-24T23:06:27.156Z,40.43
2022-11-24T23:08:54.502Z,54.30
2022-11-24T23:11:34.871Z,44.90
2022-11-24T23:14:05.982Z,38.87
2022-11-24T23:16:33.009Z,45.50
2022-11-24T23:18:59.932Z,41.07
2022-11-24T23:21:32.959Z,46.93
2022-11-24T23:24:02.356Z,71.57
2022-11-24T23:26:32.995Z,52.07
2022-11-24T23:28:59.949Z,48.10
2022-11-24T23:31:28.779Z,43.87
2022-11-24T23:34:01.536Z,50.63
2022-11-24T23:36:29.703Z,44.57
2022-11-24T23:38:57.243Z,46.13
2022-11-24T23:41:25.678Z,47.83
2022-11-24T23:43:53.182Z,45.00
2022-11-24T23:46:25.617Z,40.30
2022-11-24T23:48:54.560Z,43.17
2022-11-24T23:51:30.797Z,48.23
2022-11-24T23:53:58.996Z,42.60
2022-11-24T23:56:32.618Z,42.30
2022-11-24T23:59:01.938Z,47.70
